createdAt,value
2019-01-18T00:00:50.389Z,72.31
2019-01-18T00:01:50.410Z,72.21
2019-01-18T00:02:50.366Z,73.04
2019-01-18T00:03:50.357Z,73.14
2019-01-18T00:04:50.342Z,72.52
2019-01-18T00:05:50.344Z,72.94
2019-01-18T00:06:50.323Z,72.83
2019-01-18T00:07:50.342Z,72.94
2019-01-18T00:08:50.302Z,72.83
2019-01-18T00:09:50.287Z,73.14
2019-01-18T00:10:50.280Z,72.83
2019-01-18T00:11:50.263Z,72.94
2019-01-18T00:12:50.252Z,73.84
2019-01-18T00:13:50.263Z,73.35
2019-01-18T00:14:50.229Z,73.25
2019-01-18T00:15:50.219Z,73.46
2019-01-18T00:16:50.208Z,73.77
2019-01-18T00:17:50.199Z,73.56
2019-01-18T00:18:50.210Z,73.66
2019-01-18T00:19:50.175Z,73.77
2019-01-18T00:20:50.162Z,73.25
2019-01-18T00:21:50.154Z,74.08
2019-01-18T00:22:50.149Z,73.14
2019-01-18T00:23:50.168Z,73.49
2019-01-18T00:24:50.124Z,73.87
2019-01-18T00:25:50.107Z,73.97
2019-01-18T00:26:50.101Z,73.28
2019-01-18T00:27:50.084Z,73.77
2019-01-18T00:28:50.071Z,74.22
2019-01-18T00:29:50.084Z,74.01
2019-01-18T00:30:50.053Z,73.18
2019-01-18T00:31:50.040Z,73.46
2019-01-18T00:32:50.026Z,74.01
2019-01-18T00:33:50.017Z,74.01
2019-01-18T00:34:50.025Z,73.91
2019-01-18T00:35:49.995Z,74.01
2019-01-18T00:36:49.981Z,73.91
2019-01-18T00:37:49.970Z,73.60
2019-01-18T00:38:49.960Z,73.39
2019-01-18T00:39:49.967Z,73.49
2019-01-18T00:40:49.939Z,73.80
2019-01-18T00:41:49.926Z,73.66
2019-01-18T00:42:49.914Z,73.39
2019-01-18T00:43:49.910Z,73.70
2019-01-18T00:44:49.917Z,73.49
2019-01-18T00:45:49.884Z,73.60
2019-01-18T00:46:49.870Z,73.49
2019-01-18T00:47:49.858Z,74.11
2019-01-18T00:48:49.846Z,73.49
2019-01-18T00:49:49.835Z,73.91
2019-01-18T00:50:49.844Z,74.32
2019-01-18T00:51:49.812Z,74.01
2019-01-18T00:52:49.801Z,74.32
2019-01-18T00:53:49.790Z,74.32
2019-01-18T00:54:49.779Z,74.32
2019-01-18T00:55:49.808Z,74.32
2019-01-18T00:56:49.763Z,74.22
2019-01-18T00:57:49.743Z,74.11
2019-01-18T00:58:49.733Z,73.91
2019-01-18T00:59:49.724Z,73.60
2019-01-18T01:00:49.710Z,73.28
2019-01-18T01:01:49.733Z,74.01
2019-01-18T01:02:49.692Z,73.39
2019-01-18T01:03:50.473Z,73.35
2019-01-18T01:04:49.667Z,73.28
2019-01-18T01:05:49.655Z,74.11
2019-01-18T01:06:49.642Z,73.60
2019-01-18T01:07:49.661Z,73.80
2019-01-18T01:08:49.622Z,73.80
2019-01-18T01:09:49.615Z,73.35
2019-01-18T01:10:49.597Z,73.28
2019-01-18T01:11:49.588Z,73.46
2019-01-18T01:12:49.576Z,73.35
2019-01-18T01:13:49.585Z,73.04
2019-01-18T01:14:49.552Z,73.46
2019-01-18T01:15:49.547Z,73.56
2019-01-18T01:16:49.533Z,73.46
2019-01-18T01:17:49.523Z,73.04
2019-01-18T01:18:49.531Z,73.14
2019-01-18T01:19:49.500Z,73.04
2019-01-18T01:20:49.490Z,73.25
2019-01-18T01:21:49.473Z,73.14
2019-01-18T01:22:49.465Z,73.35
2019-01-18T01:23:49.484Z,73.35
2019-01-18T01:24:49.441Z,73.14
2019-01-18T01:25:49.427Z,73.77
2019-01-18T01:26:49.421Z,73.14
2019-01-18T01:27:49.405Z,72.73
2019-01-18T01:28:49.397Z,73.14
2019-01-18T01:29:49.412Z,72.83
2019-01-18T01:30:49.371Z,73.04
2019-01-18T01:31:49.363Z,72.83
2019-01-18T01:32:49.358Z,72.94
2019-01-18T01:33:49.339Z,72.94
2019-01-18T01:34:49.326Z,72.31
2019-01-18T01:35:49.330Z,72.73
2019-01-18T01:36:49.302Z,72.52
2019-01-18T01:37:49.294Z,72.83
2019-01-18T01:38:49.282Z,73.04
2019-01-18T01:39:49.273Z,72.52
2019-01-18T01:40:49.275Z,72.42
2019-01-18T01:41:49.249Z,72.52
2019-01-18T01:42:49.240Z,72.42
2019-01-18T01:43:49.227Z,72.21
2019-01-18T01:44:49.212Z,72.31
2019-01-18T01:45:49.219Z,72.00
2019-01-18T01:46:49.193Z,72.11
2019-01-18T01:47:49.183Z,72.31
2019-01-18T01:48:49.169Z,72.11
2019-01-18T01:49:49.157Z,72.00
2019-01-18T01:50:49.164Z,72.00
2019-01-18T01:51:49.133Z,72.21
2019-01-18T01:52:49.121Z,71.90
2019-01-18T01:53:49.112Z,70.97
2019-01-18T01:54:49.103Z,72.63
2019-01-18T01:55:49.104Z,72.63
2019-01-18T01:56:49.078Z,72.00
2019-01-18T01:57:49.067Z,72.31
2019-01-18T01:58:49.056Z,71.90
2019-01-18T01:59:50.002Z,72.31
2019-01-18T02:00:49.054Z,72.31
2019-01-18T02:01:49.020Z,72.11
2019-01-18T02:02:49.011Z,72.00
2019-01-18T02:03:48.998Z,71.59
2019-01-18T02:04:48.992Z,71.17
2019-01-18T02:05:48.991Z,71.28
2019-01-18T02:06:48.963Z,71.59
2019-01-18T02:07:48.953Z,71.69
2019-01-18T02:08:48.943Z,71.59
2019-01-18T02:09:48.932Z,71.38
2019-01-18T02:10:48.938Z,71.48
2019-01-18T02:11:48.907Z,72.21
2019-01-18T02:12:48.896Z,70.86
2019-01-18T02:13:48.888Z,71.59
2019-01-18T02:14:48.876Z,71.38
2019-01-18T02:15:48.894Z,70.97
2019-01-18T02:16:48.853Z,71.38
2019-01-18T02:17:48.842Z,70.86
2019-01-18T02:18:48.831Z,70.75
2019-01-18T02:19:48.816Z,71.07
2019-01-18T02:20:48.809Z,71.07
2019-01-18T02:21:48.814Z,71.28
2019-01-18T02:22:48.829Z,71.59
2019-01-18T02:23:48.774Z,71.48
2019-01-18T02:24:48.761Z,71.59
2019-01-18T02:25:48.750Z,71.69
2019-01-18T02:26:48.777Z,71.28
2019-01-18T02:27:48.726Z,71.17
2019-01-18T02:28:48.714Z,71.38
2019-01-18T02:29:48.704Z,71.28
2019-01-18T02:30:48.692Z,71.17
2019-01-18T02:31:48.683Z,71.28
2019-01-18T02:32:48.685Z,71.28
2019-01-18T02:33:48.660Z,71.38
2019-01-18T02:34:48.652Z,71.80
2019-01-18T02:35:48.635Z,71.69
2019-01-18T02:36:48.624Z,71.38
2019-01-18T02:37:48.646Z,70.97
2019-01-18T02:38:48.602Z,71.38
2019-01-18T02:39:48.589Z,71.17
2019-01-18T02:40:48.582Z,70.86
2019-01-18T02:41:48.581Z,71.17
2019-01-18T02:42:48.558Z,71.48
2019-01-18T02:43:48.572Z,71.90
2019-01-18T02:44:48.536Z,71.38
2019-01-18T02:45:48.522Z,71.80
2019-01-18T02:46:48.515Z,70.97
2019-01-18T02:47:48.501Z,70.97
2019-01-18T02:48:48.488Z,71.80
2019-01-18T02:49:48.507Z,71.17
2019-01-18T02:50:48.467Z,71.48
2019-01-18T02:51:48.455Z,69.71
2019-01-18T02:52:48.445Z,69.92
2019-01-18T02:53:48.431Z,70.44
2019-01-18T02:54:48.424Z,70.97
2019-01-18T02:55:48.439Z,71.07
2019-01-18T02:56:48.398Z,70.65
2019-01-18T02:57:48.387Z,70.65
2019-01-18T02:58:48.376Z,70.75
2019-01-18T02:59:48.363Z,70.23
2019-01-18T03:00:48.353Z,69.82
2019-01-18T03:01:48.372Z,69.71
2019-01-18T03:02:48.329Z,69.09
2019-01-18T03:03:48.320Z,69.71
2019-01-18T03:04:48.319Z,69.40
2019-01-18T03:05:48.296Z,69.40
2019-01-18T03:06:48.288Z,69.40
2019-01-18T03:07:48.310Z,69.61
2019-01-18T03:08:48.266Z,69.30
2019-01-18T03:09:48.256Z,69.20
2019-01-18T03:10:48.252Z,69.61
2019-01-18T03:11:48.228Z,69.74
2019-01-18T03:12:48.218Z,69.74
2019-01-18T03:13:48.234Z,70.17
2019-01-18T03:14:48.196Z,71.34
2019-01-18T03:15:48.183Z,72.34
2019-01-18T03:16:48.176Z,74.88
2019-01-18T03:17:48.176Z,77.03
2019-01-18T03:18:48.149Z,78.73
2019-01-18T03:19:48.170Z,79.35
2019-01-18T03:20:48.127Z,80.64
2019-01-18T03:21:48.115Z,80.95
2019-01-18T03:22:48.105Z,82.10
2019-01-18T03:23:48.095Z,83.56
2019-01-18T03:24:48.082Z,83.87
2019-01-18T03:25:48.101Z,83.76
2019-01-18T03:26:48.061Z,82.20
2019-01-18T03:27:48.062Z,81.47
2019-01-18T03:28:48.037Z,81.26
2019-01-18T03:29:48.027Z,81.37
2019-01-18T03:30:48.019Z,81.05
2019-01-18T03:31:48.025Z,81.30
2019-01-18T03:32:48.003Z,81.51
2019-01-18T03:33:47.980Z,82.03
2019-01-18T03:34:47.969Z,82.76
2019-01-18T03:35:47.963Z,83.18
2019-01-18T03:36:47.978Z,83.59
2019-01-18T03:37:47.937Z,82.45
2019-01-18T03:38:47.927Z,80.88
2019-01-18T03:39:47.913Z,81.20
2019-01-18T03:40:47.908Z,81.09
2019-01-18T03:41:47.891Z,81.51
2019-01-18T03:42:47.912Z,81.20
2019-01-18T03:43:47.870Z,80.99
2019-01-18T03:44:47.859Z,81.41
2019-01-18T03:45:47.849Z,81.41
2019-01-18T03:46:47.840Z,81.30
2019-01-18T03:47:47.825Z,82.24
2019-01-18T03:48:47.846Z,81.41
2019-01-18T03:49:47.802Z,81.93
2019-01-18T03:50:47.796Z,81.68
2019-01-18T03:51:47.786Z,81.68
2019-01-18T03:52:47.769Z,79.32
2019-01-18T03:53:47.778Z,79.22
2019-01-18T03:54:47.768Z,81.09
2019-01-18T03:55:47.736Z,80.99
2019-01-18T03:56:47.730Z,80.16
2019-01-18T03:57:47.714Z,80.26
2019-01-18T03:58:47.703Z,81.82
2019-01-18T03:59:47.726Z,79.63
2019-01-18T04:00:47.688Z,79.32
2019-01-18T04:01:47.668Z,80.36
2019-01-18T04:02:47.661Z,80.88
2019-01-18T04:03:47.649Z,80.57
2019-01-18T04:04:47.636Z,79.74
2019-01-18T04:05:47.656Z,79.63
2019-01-18T04:06:47.614Z,79.84
2019-01-18T04:07:47.607Z,78.91
2019-01-18T04:08:47.605Z,79.43
2019-01-18T04:09:47.580Z,80.16
2019-01-18T04:10:47.572Z,80.88
2019-01-18T04:11:47.591Z,79.43
2019-01-18T04:12:47.546Z,80.16
2019-01-18T04:13:47.537Z,79.43
2019-01-18T04:14:47.535Z,79.11
2019-01-18T04:15:47.515Z,79.32
2019-01-18T04:16:47.502Z,79.53
2019-01-18T04:17:47.512Z,78.80
2019-01-18T04:18:47.481Z,79.74
2019-01-18T04:19:47.468Z,79.43
2019-01-18T04:20:47.458Z,80.57
2019-01-18T04:21:47.447Z,80.78
2019-01-18T04:22:47.464Z,80.88
2019-01-18T04:23:47.431Z,80.78
2019-01-18T04:24:47.414Z,81.41
2019-01-18T04:25:47.402Z,81.51
2019-01-18T04:26:47.395Z,80.88
2019-01-18T04:27:47.379Z,81.20
2019-01-18T04:28:47.402Z,81.20
2019-01-18T04:29:47.357Z,81.62
2019-01-18T04:30:47.350Z,81.20
2019-01-18T04:31:47.342Z,81.51
2019-01-18T04:32:47.323Z,81.51
2019-01-18T04:33:47.319Z,81.62
2019-01-18T04:34:47.340Z,81.62
2019-01-18T04:35:47.291Z,80.99
2019-01-18T04:36:47.283Z,80.82
2019-01-18T04:37:47.277Z,81.65
2019-01-18T04:38:47.259Z,82.48
2019-01-18T04:39:47.247Z,82.03
2019-01-18T04:40:47.263Z,81.72
2019-01-18T04:41:47.228Z,80.88
2019-01-18T04:42:47.214Z,81.23
2019-01-18T04:43:47.204Z,81.34
2019-01-18T04:44:47.192Z,81.45
2019-01-18T04:45:47.199Z,81.20
2019-01-18T04:46:47.169Z,81.62
2019-01-18T04:47:47.159Z,81.51
2019-01-18T04:48:47.149Z,81.41
2019-01-18T04:49:47.148Z,81.13
2019-01-18T04:50:47.156Z,81.02
2019-01-18T04:51:47.113Z,81.23
2019-01-18T04:52:47.101Z,81.96
2019-01-18T04:53:47.093Z,81.09
2019-01-18T04:54:47.081Z,81.09
2019-01-18T04:55:47.102Z,81.09
2019-01-18T04:56:47.065Z,80.99
2019-01-18T04:57:47.048Z,80.68
2019-01-18T04:58:55.608Z,80.88
2019-01-18T04:59:56.677Z,80.99
2019-01-18T05:00:56.046Z,80.47
2019-01-18T05:01:55.811Z,80.78
2019-01-18T05:02:47.000Z,81.20
2019-01-18T05:03:57.255Z,80.43
2019-01-18T05:04:46.973Z,79.74
2019-01-18T05:05:46.969Z,79.32
2019-01-18T05:06:55.947Z,79.94
2019-01-18T05:07:46.939Z,79.74
2019-01-18T05:08:46.925Z,80.99
2019-01-18T05:09:46.915Z,80.78
2019-01-18T05:10:46.912Z,80.99
2019-01-18T05:11:46.915Z,81.65
2019-01-18T05:12:46.910Z,82.17
2019-01-18T05:13:46.871Z,82.90
2019-01-18T05:14:46.856Z,83.53
2019-01-18T05:15:46.844Z,83.74
2019-01-18T05:16:46.840Z,83.57
2019-01-18T05:17:46.825Z,83.22
2019-01-18T05:18:46.829Z,83.78
2019-01-18T05:19:46.799Z,84.16
2019-01-18T05:20:46.788Z,84.16
2019-01-18T05:21:46.777Z,83.78
2019-01-18T05:22:46.775Z,83.78
2019-01-18T05:23:46.792Z,84.23
2019-01-18T05:24:49.571Z,84.96
2019-01-18T05:25:46.749Z,85.27
2019-01-18T05:26:46.723Z,85.00
2019-01-18T05:27:46.714Z,85.63
2019-01-18T05:28:46.703Z,86.36
2019-01-18T05:29:46.718Z,86.32
2019-01-18T05:30:47.587Z,85.80
2019-01-18T05:31:46.665Z,85.49
2019-01-18T05:32:46.655Z,83.88
2019-01-18T05:33:46.644Z,83.88
2019-01-18T05:34:46.638Z,83.47
2019-01-18T05:35:46.641Z,83.15
2019-01-18T05:36:46.610Z,81.69
2019-01-18T05:37:46.597Z,81.69
2019-01-18T05:38:46.591Z,82.00
2019-01-18T05:39:46.578Z,82.63
2019-01-18T05:40:46.598Z,82.07
2019-01-18T05:41:46.554Z,82.63
2019-01-18T05:42:46.543Z,82.28
2019-01-18T05:43:46.531Z,81.55
2019-01-18T05:44:46.524Z,81.02
2019-01-18T05:45:46.514Z,81.23
2019-01-18T05:46:46.531Z,81.65
2019-01-18T05:47:46.501Z,82.00
2019-01-18T05:48:46.476Z,81.79
2019-01-18T05:49:46.467Z,82.10
2019-01-18T05:50:46.456Z,82.21
2019-01-18T05:51:46.460Z,83.04
2019-01-18T05:52:46.463Z,82.67
2019-01-18T05:53:46.419Z,83.04
2019-01-18T05:54:46.409Z,83.15
2019-01-18T05:55:46.399Z,83.04
2019-01-18T05:56:46.395Z,82.21
2019-01-18T05:57:46.380Z,81.93
2019-01-18T05:58:46.402Z,82.21
2019-01-18T05:59:46.351Z,82.87
2019-01-18T06:00:46.342Z,81.62
2019-01-18T06:01:46.330Z,79.81
2019-01-18T06:02:46.319Z,79.11
2019-01-18T06:03:46.313Z,78.39
2019-01-18T06:04:46.332Z,77.34
2019-01-18T06:05:46.295Z,76.72
2019-01-18T06:06:46.273Z,76.82
2019-01-18T06:07:46.263Z,77.14
2019-01-18T06:08:46.255Z,77.24
2019-01-18T06:09:46.242Z,77.14
2019-01-18T06:10:46.264Z,77.14
2019-01-18T06:11:46.222Z,76.40
2019-01-18T06:12:46.208Z,75.98
2019-01-18T06:13:46.196Z,76.33
2019-01-18T06:14:46.188Z,76.20
2019-01-18T06:15:46.175Z,76.51
2019-01-18T06:16:46.179Z,76.51
2019-01-18T06:17:46.154Z,74.73
2019-01-18T06:18:46.142Z,74.52
2019-01-18T06:19:46.132Z,75.67
2019-01-18T06:20:46.121Z,73.38
2019-01-18T06:21:46.139Z,73.17
2019-01-18T06:22:46.098Z,73.07
2019-01-18T06:23:46.086Z,73.07
2019-01-18T06:24:46.075Z,73.86
2019-01-18T06:25:46.069Z,72.72
2019-01-18T06:26:46.060Z,71.81
2019-01-18T06:27:46.069Z,72.41
2019-01-18T06:28:46.033Z,73.07
2019-01-18T06:29:46.017Z,71.70
2019-01-18T06:30:46.010Z,72.13
2019-01-18T06:31:46.005Z,72.19
2019-01-18T06:32:45.984Z,72.61
2019-01-18T06:33:46.008Z,72.72
2019-01-18T06:34:45.964Z,72.75
2019-01-18T06:35:45.952Z,73.48
2019-01-18T06:36:45.942Z,73.48
2019-01-18T06:37:45.930Z,73.69
2019-01-18T06:38:45.922Z,73.48
2019-01-18T06:39:45.927Z,74.04
2019-01-18T06:40:45.902Z,74.35
2019-01-18T06:41:45.886Z,73.93
2019-01-18T06:42:45.874Z,73.30
2019-01-18T06:43:45.864Z,72.16
2019-01-18T06:44:45.880Z,70.80
2019-01-18T06:45:45.841Z,69.26
2019-01-18T06:46:45.828Z,69.79
2019-01-18T06:47:45.818Z,69.76
2019-01-18T06:48:45.809Z,69.68
2019-01-18T06:49:45.797Z,69.47
2019-01-18T06:50:45.805Z,70.94
2019-01-18T06:51:45.773Z,72.40
2019-01-18T06:52:45.765Z,71.95
2019-01-18T06:53:45.753Z,72.68
2019-01-18T06:54:45.745Z,71.84
2019-01-18T06:55:45.758Z,71.53
2019-01-18T06:56:45.728Z,71.32
2019-01-18T06:57:45.705Z,71.53
2019-01-18T06:58:45.693Z,70.70
2019-01-18T06:59:45.682Z,72.16
2019-01-18T07:00:45.673Z,70.48
2019-01-18T07:01:45.687Z,70.62
2019-01-18T07:02:45.650Z,72.26
2019-01-18T07:03:45.637Z,71.14
2019-01-18T07:04:45.628Z,70.20
2019-01-18T07:05:45.616Z,71.14
2019-01-18T07:06:45.604Z,71.04
2019-01-18T07:07:45.622Z,70.94
2019-01-18T07:08:45.581Z,71.14
2019-01-18T07:09:45.571Z,70.73
2019-01-18T07:10:45.560Z,71.88
2019-01-18T07:11:45.552Z,69.89
2019-01-18T07:12:45.538Z,70.76
2019-01-18T07:13:45.544Z,70.73
2019-01-18T07:14:45.515Z,71.18
2019-01-18T07:15:45.505Z,71.08
2019-01-18T07:16:45.493Z,71.67
2019-01-18T07:17:45.485Z,71.18
2019-01-18T07:18:45.505Z,70.86
2019-01-18T07:19:45.460Z,71.59
2019-01-18T07:20:45.448Z,71.59
2019-01-18T07:21:45.438Z,71.52
2019-01-18T07:22:45.428Z,71.91
2019-01-18T07:23:45.421Z,71.08
2019-01-18T07:24:45.431Z,73.16
2019-01-18T07:25:45.396Z,73.58
2019-01-18T07:26:45.380Z,72.85
2019-01-18T07:27:45.371Z,72.22
2019-01-18T07:28:45.361Z,71.49
2019-01-18T07:29:45.370Z,71.80
2019-01-18T07:30:45.355Z,72.53
2019-01-18T07:31:45.329Z,71.59
2019-01-18T07:32:45.319Z,71.18
2019-01-18T07:33:45.302Z,71.59
2019-01-18T07:34:45.294Z,72.96
2019-01-18T07:35:45.312Z,72.53
2019-01-18T07:36:45.270Z,72.85
2019-01-18T07:37:45.258Z,73.27
2019-01-18T07:38:45.249Z,74.00
2019-01-18T07:39:45.238Z,73.37
2019-01-18T07:40:45.224Z,71.98
2019-01-18T07:41:45.245Z,72.75
2019-01-18T07:42:45.204Z,72.43
2019-01-18T07:43:45.192Z,72.53
2019-01-18T07:44:45.180Z,73.02
2019-01-18T07:45:45.170Z,72.43
2019-01-18T07:46:45.171Z,73.24
2019-01-18T07:47:45.177Z,73.27
2019-01-18T07:48:45.136Z,72.53
2019-01-18T07:49:45.126Z,72.33
2019-01-18T07:50:45.116Z,72.53
2019-01-18T07:51:45.103Z,73.16
2019-01-18T07:52:45.092Z,73.27
2019-01-18T07:53:45.100Z,73.27
2019-01-18T07:54:45.080Z,74.10
2019-01-18T07:55:45.056Z,73.47
2019-01-18T07:56:45.047Z,73.16
2019-01-18T07:57:45.034Z,73.16
2019-01-18T07:58:45.061Z,73.16
2019-01-18T07:59:45.012Z,73.86
2019-01-18T08:00:45.010Z,74.10
2019-01-18T08:01:44.990Z,73.58
2019-01-18T08:02:44.979Z,73.65
2019-01-18T08:03:44.967Z,73.55
2019-01-18T08:04:44.984Z,73.86
2019-01-18T08:05:44.953Z,73.13
2019-01-18T08:06:44.935Z,73.34
2019-01-18T08:07:44.929Z,72.61
2019-01-18T08:08:44.913Z,73.34
2019-01-18T08:09:44.899Z,73.27
2019-01-18T08:10:44.907Z,73.16
2019-01-18T08:11:44.883Z,73.24
2019-01-18T08:12:44.881Z,72.92
2019-01-18T08:13:44.885Z,73.24
2019-01-18T08:14:44.861Z,73.13
2019-01-18T08:15:44.863Z,72.61
2019-01-18T08:16:44.822Z,71.91
2019-01-18T08:17:44.812Z,72.33
2019-01-18T08:18:44.798Z,72.08
2019-01-18T08:19:44.787Z,72.12
2019-01-18T08:20:44.777Z,72.75
2019-01-18T08:21:44.807Z,72.43
2019-01-18T08:22:44.755Z,72.85
2019-01-18T08:23:45.680Z,72.43
2019-01-18T08:24:44.733Z,71.98
2019-01-18T08:25:44.723Z,72.61
2019-01-18T08:26:44.716Z,71.14
2019-01-18T08:27:44.737Z,71.18
2019-01-18T08:28:44.695Z,72.12
2019-01-18T08:29:44.687Z,71.77
2019-01-18T08:30:44.675Z,72.75
2019-01-18T08:31:44.660Z,72.08
2019-01-18T08:32:44.663Z,72.40
2019-01-18T08:33:44.816Z,72.08
2019-01-18T08:34:44.637Z,72.81
2019-01-18T08:35:44.619Z,71.36
2019-01-18T08:36:44.598Z,70.52
2019-01-18T08:37:44.588Z,69.86
2019-01-18T08:38:44.620Z,69.37
2019-01-18T08:39:44.569Z,69.37
2019-01-18T08:40:44.557Z,70.00
2019-01-18T08:41:44.544Z,70.10
2019-01-18T08:42:44.531Z,70.20
2019-01-18T08:43:44.520Z,69.82
2019-01-18T08:44:44.541Z,69.58
2019-01-18T08:45:44.498Z,70.03
2019-01-18T08:46:44.488Z,69.47
2019-01-18T08:47:44.475Z,69.71
2019-01-18T08:48:44.465Z,70.03
2019-01-18T08:49:44.454Z,70.03
2019-01-18T08:50:44.464Z,70.00
2019-01-18T08:51:44.431Z,69.79
2019-01-18T08:52:44.420Z,69.79
2019-01-18T08:53:44.411Z,70.83
2019-01-18T08:54:44.398Z,69.47
2019-01-18T08:55:44.415Z,68.19
2019-01-18T08:56:44.376Z,69.13
2019-01-18T08:57:44.364Z,69.06
2019-01-18T08:58:44.362Z,68.92
2019-01-18T08:59:44.362Z,68.50
2019-01-18T09:00:44.346Z,68.08
2019-01-18T09:01:44.355Z,67.77
2019-01-18T09:02:44.309Z,67.95
2019-01-18T09:03:44.303Z,67.63
2019-01-18T09:04:44.286Z,67.95
2019-01-18T09:05:44.276Z,66.17
2019-01-18T09:06:44.264Z,66.07
2019-01-18T09:07:44.285Z,65.65
2019-01-18T09:08:44.245Z,66.49
2019-01-18T09:09:44.238Z,67.01
2019-01-18T09:10:44.220Z,67.81
2019-01-18T09:11:44.211Z,67.71
2019-01-18T09:12:44.196Z,67.29
2019-01-18T09:13:44.203Z,66.04
2019-01-18T09:14:44.175Z,66.53
2019-01-18T09:15:44.164Z,66.53
2019-01-18T09:16:44.159Z,66.01
2019-01-18T09:17:44.142Z,64.47
2019-01-18T09:18:44.158Z,65.31
2019-01-18T09:19:44.121Z,66.85
2019-01-18T09:20:44.106Z,66.98
2019-01-18T09:21:44.096Z,66.35
2019-01-18T09:22:44.088Z,65.94
2019-01-18T09:23:44.798Z,65.97
2019-01-18T09:24:44.095Z,65.89
2019-01-18T09:25:44.054Z,66.69
2019-01-18T09:26:44.042Z,67.04
2019-01-18T09:27:44.030Z,67.98
2019-01-18T09:28:44.023Z,67.25
2019-01-18T09:29:44.016Z,67.56
2019-01-18T09:30:44.014Z,67.88
2019-01-18T09:31:43.992Z,67.43
2019-01-18T09:32:43.974Z,67.50
2019-01-18T09:33:43.969Z,67.40
2019-01-18T09:34:43.954Z,66.46
2019-01-18T09:35:43.973Z,66.85
2019-01-18T09:36:43.931Z,66.95
2019-01-18T09:37:43.920Z,67.05
2019-01-18T09:38:43.911Z,66.95
2019-01-18T09:39:43.902Z,66.82
2019-01-18T09:40:43.886Z,67.02
2019-01-18T09:41:44.188Z,65.25
2019-01-18T09:42:43.864Z,64.52
2019-01-18T09:43:43.854Z,65.14
2019-01-18T09:44:43.850Z,64.83
2019-01-18T09:45:43.842Z,64.94
2019-01-18T09:46:43.825Z,64.62
2019-01-18T09:47:43.837Z,64.52
2019-01-18T09:48:43.799Z,64.31
2019-01-18T09:49:43.789Z,64.62
2019-01-18T09:50:43.778Z,65.28
2019-01-18T09:51:43.767Z,65.56
2019-01-18T09:52:43.753Z,66.50
2019-01-18T09:53:43.763Z,66.29
2019-01-18T09:54:43.732Z,65.64
2019-01-18T09:55:43.719Z,65.64
2019-01-18T09:56:43.711Z,65.43
2019-01-18T09:57:43.698Z,64.70
2019-01-18T09:58:43.720Z,62.51
2019-01-18T09:59:43.674Z,62.93
2019-01-18T10:00:43.662Z,62.93
2019-01-18T10:01:49.242Z,63.55
2019-01-18T10:02:44.639Z,64.11
2019-01-18T10:03:43.630Z,64.90
2019-01-18T10:04:43.655Z,64.73
2019-01-18T10:05:43.609Z,64.73
2019-01-18T10:06:43.595Z,64.73
2019-01-18T10:07:43.586Z,64.21
2019-01-18T10:08:43.586Z,64.21
2019-01-18T10:09:43.561Z,65.14
2019-01-18T10:10:51.547Z,64.11
2019-01-18T10:11:43.543Z,64.23
2019-01-18T10:12:51.926Z,63.71
2019-01-18T10:13:53.445Z,64.97
2019-01-18T10:14:52.972Z,64.76
2019-01-18T10:15:51.390Z,65.07
2019-01-18T10:16:53.074Z,65.80
2019-01-18T10:17:43.480Z,65.67
2019-01-18T10:18:43.465Z,65.98
2019-01-18T10:19:43.455Z,66.50
2019-01-18T10:20:43.474Z,66.01
2019-01-18T10:21:43.432Z,66.19
2019-01-18T10:22:43.425Z,65.74
2019-01-18T10:23:43.412Z,64.73
2019-01-18T10:24:43.395Z,64.31
2019-01-18T10:25:43.386Z,65.67
2019-01-18T10:26:43.407Z,65.04
2019-01-18T10:27:43.362Z,63.89
2019-01-18T10:28:43.349Z,65.04
2019-01-18T10:29:43.359Z,64.94
2019-01-18T10:30:44.383Z,65.04
2019-01-18T10:31:43.318Z,64.83
2019-01-18T10:32:43.343Z,64.62
2019-01-18T10:33:44.775Z,64.11
2019-01-18T10:34:43.286Z,65.04
2019-01-18T10:35:43.274Z,65.67
2019-01-18T10:36:43.262Z,64.42
2019-01-18T10:37:43.254Z,62.96
2019-01-18T10:38:43.260Z,62.57
2019-01-18T10:39:43.228Z,63.37
2019-01-18T10:40:43.217Z,63.06
2019-01-18T10:41:43.206Z,64.31
2019-01-18T10:42:43.202Z,64.52
2019-01-18T10:43:43.214Z,64.94
2019-01-18T10:44:43.172Z,65.35
2019-01-18T10:45:43.161Z,64.73
2019-01-18T10:46:43.148Z,64.52
2019-01-18T10:47:43.139Z,64.83
2019-01-18T10:48:43.127Z,65.01
2019-01-18T10:49:43.145Z,64.73
2019-01-18T10:50:43.105Z,64.07
2019-01-18T10:51:43.099Z,65.01
2019-01-18T10:52:43.084Z,63.03
2019-01-18T10:53:43.072Z,62.64
2019-01-18T10:54:43.060Z,63.76
2019-01-18T10:55:43.080Z,63.24
2019-01-18T10:56:43.038Z,62.72
2019-01-18T10:57:43.029Z,63.03
2019-01-18T10:58:43.014Z,63.24
2019-01-18T10:59:43.003Z,62.82
2019-01-18T11:00:43.023Z,62.72
2019-01-18T11:01:42.981Z,62.41
2019-01-18T11:02:42.977Z,63.32
2019-01-18T11:03:42.960Z,62.93
2019-01-18T11:04:42.949Z,62.69
2019-01-18T11:05:42.941Z,63.24
2019-01-18T11:06:42.952Z,63.45
2019-01-18T11:07:42.916Z,62.69
2019-01-18T11:08:42.906Z,61.76
2019-01-18T11:09:42.894Z,61.96
2019-01-18T11:10:42.886Z,61.13
2019-01-18T11:11:42.871Z,60.53
2019-01-18T11:12:42.888Z,62.69
2019-01-18T11:13:42.849Z,62.27
2019-01-18T11:14:42.838Z,62.30
2019-01-18T11:15:42.825Z,64.67
2019-01-18T11:16:42.814Z,64.04
2019-01-18T11:17:42.805Z,63.84
2019-01-18T11:18:42.809Z,64.15
2019-01-18T11:19:42.796Z,63.53
2019-01-18T11:20:42.771Z,64.04
2019-01-18T11:21:42.771Z,63.84
2019-01-18T11:22:42.748Z,62.90
2019-01-18T11:23:42.760Z,62.79
2019-01-18T11:24:42.722Z,62.48
2019-01-18T11:25:42.714Z,63.53
2019-01-18T11:26:42.740Z,63.63
2019-01-18T11:27:42.690Z,63.32
2019-01-18T11:28:42.718Z,63.73
2019-01-18T11:29:42.694Z,64.04
2019-01-18T11:30:43.558Z,64.04
2019-01-18T11:31:42.651Z,63.63
2019-01-18T11:32:42.636Z,63.81
2019-01-18T11:33:42.628Z,63.63
2019-01-18T11:34:42.643Z,63.73
2019-01-18T11:35:42.600Z,63.84
2019-01-18T11:36:42.587Z,63.91
2019-01-18T11:37:42.583Z,63.49
2019-01-18T11:38:42.566Z,63.49
2019-01-18T11:39:42.556Z,62.66
2019-01-18T11:40:42.623Z,63.60
2019-01-18T11:41:42.532Z,63.81
2019-01-18T11:42:42.521Z,64.15
2019-01-18T11:43:42.512Z,63.81
2019-01-18T11:44:42.497Z,64.12
2019-01-18T11:45:42.486Z,64.36
2019-01-18T11:46:42.493Z,64.15
2019-01-18T11:47:42.464Z,64.01
2019-01-18T11:48:42.457Z,64.12
2019-01-18T11:49:42.442Z,62.66
2019-01-18T11:50:42.432Z,62.55
2019-01-18T11:51:42.453Z,63.49
2019-01-18T11:52:42.433Z,63.18
2019-01-18T11:53:42.399Z,63.29
2019-01-18T11:54:44.055Z,63.49
2019-01-18T11:55:42.373Z,63.73
2019-01-18T11:56:42.379Z,62.48
2019-01-18T11:57:42.423Z,62.87
2019-01-18T11:58:42.352Z,62.07
2019-01-18T11:59:42.330Z,62.48
2019-01-18T12:00:42.317Z,61.54
2019-01-18T12:01:42.310Z,61.76
2019-01-18T12:02:42.297Z,61.65
2019-01-18T12:03:42.304Z,61.86
2019-01-18T12:04:42.273Z,61.96
2019-01-18T12:05:42.262Z,62.38
2019-01-18T12:06:42.248Z,62.38
2019-01-18T12:07:42.237Z,62.07
2019-01-18T12:08:42.259Z,62.79
2019-01-18T12:09:42.215Z,62.79
2019-01-18T12:10:42.204Z,61.33
2019-01-18T12:11:42.195Z,62.07
2019-01-18T12:12:42.187Z,62.07
2019-01-18T12:13:42.177Z,61.65
2019-01-18T12:14:42.189Z,62.07
2019-01-18T12:15:42.149Z,62.38
2019-01-18T12:16:42.139Z,61.54
2019-01-18T12:17:42.129Z,62.27
2019-01-18T12:18:42.121Z,61.72
2019-01-18T12:19:42.105Z,62.17
2019-01-18T12:20:42.121Z,62.14
2019-01-18T12:21:42.082Z,61.72
2019-01-18T12:22:42.071Z,61.52
2019-01-18T12:23:42.061Z,61.10
2019-01-18T12:24:42.046Z,61.83
2019-01-18T12:25:42.040Z,61.93
2019-01-18T12:26:42.555Z,61.93
2019-01-18T12:27:42.013Z,61.72
2019-01-18T12:28:42.000Z,61.72
2019-01-18T12:29:41.993Z,60.78
2019-01-18T12:30:41.978Z,60.78
2019-01-18T12:31:41.973Z,60.78
2019-01-18T12:32:41.990Z,60.16
2019-01-18T12:33:41.947Z,60.37
2019-01-18T12:34:41.934Z,61.10
2019-01-18T12:35:41.920Z,60.71
2019-01-18T12:36:41.923Z,60.71
2019-01-18T12:37:41.902Z,60.40
2019-01-18T12:38:50.934Z,60.82
2019-01-18T12:39:41.980Z,61.65
2019-01-18T12:40:41.878Z,60.92
2019-01-18T12:41:50.701Z,61.76
2019-01-18T12:42:51.728Z,61.65
2019-01-18T12:43:42.218Z,60.50
2019-01-18T12:44:41.838Z,60.82
2019-01-18T12:45:41.831Z,62.17
2019-01-18T12:46:41.807Z,61.54
2019-01-18T12:47:41.805Z,60.71
2019-01-18T12:48:41.779Z,61.02
2019-01-18T12:49:41.805Z,61.76
2019-01-18T12:50:41.769Z,61.96
2019-01-18T12:51:41.742Z,61.76
2019-01-18T12:52:41.732Z,60.71